createdAt,value
2019-05-26T05:24:27.804Z,74.85
2019-05-26T05:25:27.775Z,74.94
2019-05-26T05:26:27.773Z,74.69
2019-05-26T05:27:27.756Z,74.21
2019-05-26T05:28:27.751Z,72.32
2019-05-26T05:29:27.909Z,71.84
2019-05-26T05:30:27.752Z,71.11
2019-05-26T05:31:27.742Z,71.2
2019-05-26T05:32:27.743Z,71.11
2019-05-26T05:33:27.738Z,70.47
2019-05-26T05:34:27.763Z,69.6
2019-05-26T05:35:27.733Z,68.93
2019-05-26T05:36:27.731Z,68.48
2019-05-26T05:37:27.796Z,67.9
2019-05-26T05:38:27.727Z,67.42
2019-05-26T05:39:27.738Z,67.36
2019-05-26T05:40:27.725Z,66.11
2019-05-26T05:41:27.721Z,65.95
2019-05-26T05:42:27.725Z,64.89
2019-05-26T05:43:27.727Z,63.47
2019-05-26T05:44:27.724Z,63.79
2019-05-26T05:45:27.723Z,62.57
2019-05-26T05:46:27.723Z,61.7
2019-05-26T05:47:27.731Z,60.96
2019-05-26T05:48:27.729Z,59.38
2019-05-26T05:49:27.756Z,58.44
2019-05-26T05:50:27.730Z,57.37
2019-05-26T05:51:27.731Z,56.75
2019-05-26T05:52:27.738Z,54.06
2019-05-26T05:53:27.740Z,53.51
2019-05-26T05:54:27.743Z,52.47
2019-05-26T05:55:27.747Z,50.74
2019-05-26T05:56:27.748Z,49.22
2019-05-26T05:57:27.759Z,47.88
2019-05-26T05:58:27.770Z,47.61
2019-05-26T05:59:27.773Z,46.55
2019-05-26T06:00:27.775Z,45.67
2019-05-26T06:01:27.778Z,44.14
2019-05-26T06:02:27.795Z,44.24
2019-05-26T06:03:27.792Z,43.77
2019-05-26T06:04:27.816Z,43.09
2019-05-26T06:05:27.806Z,43.11
2019-05-26T06:06:27.814Z,42.24
2019-05-26T06:07:27.837Z,42.16
2019-05-26T06:08:27.828Z,41.67
2019-05-26T06:09:27.864Z,40.11
2019-05-26T06:10:27.845Z,39.16
2019-05-26T06:11:27.849Z,40.21
2019-05-26T06:12:27.858Z,40.41
2019-05-26T06:13:27.869Z,40.41
2019-05-26T06:14:27.874Z,39.14
2019-05-26T06:15:27.879Z,39.16
2019-05-26T06:16:27.928Z,39.26
2019-05-26T06:17:27.898Z,38.77
2019-05-26T06:18:27.905Z,38.87
2019-05-26T06:19:27.912Z,38.87
2019-05-26T06:20:27.921Z,38.96
2019-05-26T06:21:27.928Z,39.16
2019-05-26T06:22:27.937Z,38.38
2019-05-26T06:23:27.946Z,39.16
2019-05-26T06:24:27.957Z,39.16
2019-05-26T06:25:27.962Z,38.87
2019-05-26T06:26:27.967Z,38.77
2019-05-26T06:27:27.978Z,38.38
2019-05-26T06:28:27.983Z,38.4
2019-05-26T06:29:27.993Z,38.4
2019-05-26T06:30:28.005Z,38.49
2019-05-26T06:31:28.025Z,38.2
2019-05-26T06:32:28.013Z,37.71
2019-05-26T06:33:28.024Z,37.71
2019-05-26T06:34:28.031Z,37.71
2019-05-26T06:35:28.039Z,37.43
2019-05-26T06:36:28.051Z,37.62
2019-05-26T06:37:28.056Z,37.52
2019-05-26T06:38:28.091Z,37.71
2019-05-26T06:39:28.073Z,37.33
2019-05-26T06:40:28.091Z,37.45
2019-05-26T06:41:35.982Z,37.45
2019-05-26T06:42:28.102Z,36.47
2019-05-26T06:43:28.107Z,36.96
2019-05-26T06:44:28.114Z,36.76
2019-05-26T06:45:28.123Z,36.47
2019-05-26T06:46:28.135Z,36.78
2019-05-26T06:47:28.167Z,36.19
2019-05-26T06:48:29.424Z,36.49
2019-05-26T06:49:28.163Z,36.1
2019-05-26T06:50:28.168Z,35.22
2019-05-26T06:51:28.182Z,35.8
2019-05-26T06:52:28.191Z,36.58
2019-05-26T06:53:28.411Z,36.19
2019-05-26T06:54:28.206Z,36.58
2019-05-26T06:55:28.215Z,36.68
2019-05-26T06:56:28.225Z,36.21
2019-05-26T06:57:28.234Z,35.82
2019-05-26T06:58:28.245Z,35.06
2019-05-26T06:59:28.253Z,35.06
2019-05-26T07:00:28.269Z,34.96
2019-05-26T07:01:28.280Z,35.25
2019-05-26T07:02:28.299Z,34.88
2019-05-26T07:03:28.292Z,33.51
2019-05-26T07:04:28.304Z,33.82
2019-05-26T07:05:28.317Z,33.43
2019-05-26T07:06:28.324Z,33.72
2019-05-26T07:07:28.335Z,33.82
2019-05-26T07:08:28.345Z,33.43
2019-05-26T07:09:28.355Z,32.94
2019-05-26T07:10:28.553Z,33.53
2019-05-26T07:11:28.379Z,33.43
2019-05-26T07:12:28.385Z,32.95
2019-05-26T07:13:28.398Z,31.88
2019-05-26T07:14:28.170Z,31.99
2019-05-26T07:15:28.425Z,32.09
2019-05-26T07:16:40.048Z,32.2
2019-05-26T07:17:28.447Z,31.14
2019-05-26T07:18:28.455Z,30.36
2019-05-26T07:19:28.483Z,30.65
2019-05-26T07:20:28.477Z,30.26
2019-05-26T07:21:28.489Z,30.16
2019-05-26T07:22:28.500Z,30.08
2019-05-26T07:23:28.520Z,29.49
2019-05-26T07:24:31.787Z,29.49
2019-05-26T07:25:28.532Z,29.98
2019-05-26T07:26:28.555Z,29.49
2019-05-26T07:27:28.556Z,29.49
2019-05-26T07:28:28.574Z,29.5
2019-05-26T07:29:28.584Z,28.82
2019-05-26T07:30:28.592Z,28.93
2019-05-26T07:31:28.606Z,29.03
2019-05-26T07:32:28.625Z,28.92
2019-05-26T07:33:28.634Z,29.41
2019-05-26T07:34:28.644Z,28.92
2019-05-26T07:35:28.654Z,29.41
2019-05-26T07:36:28.669Z,29.11
2019-05-26T07:37:28.677Z,29.6
2019-05-26T07:38:28.693Z,29.6
2019-05-26T07:39:28.701Z,29.22
2019-05-26T07:40:28.714Z,29.03
2019-05-26T07:41:28.731Z,28.85
2019-05-26T07:42:28.737Z,28.45
2019-05-26T07:43:30.639Z,28.47
2019-05-26T07:44:28.763Z,27.59
2019-05-26T07:45:28.777Z,26.9
2019-05-26T07:46:28.787Z,27
2019-05-26T07:47:28.800Z,27.39
2019-05-26T07:48:28.823Z,27.49
2019-05-26T07:49:28.825Z,27.78
2019-05-26T07:50:28.836Z,27
2019-05-26T07:51:28.852Z,26.91
2019-05-26T07:52:28.905Z,25.73
2019-05-26T07:53:28.874Z,26.03
2019-05-26T07:54:28.889Z,26.62
2019-05-26T07:55:28.898Z,27.29
2019-05-26T07:56:28.911Z,27.31
2019-05-26T07:57:28.924Z,27.11
2019-05-26T07:58:28.938Z,26.62
2019-05-26T07:59:28.951Z,26.81
2019-05-26T08:00:28.970Z,27.49
2019-05-26T08:01:38.160Z,27.69
2019-05-26T08:02:28.986Z,27.49
2019-05-26T08:03:29.016Z,27.29
2019-05-26T08:04:29.010Z,26.9
2019-05-26T08:05:29.033Z,26.61
2019-05-26T08:06:29.038Z,26.61
2019-05-26T08:07:28.804Z,26.4
2019-05-26T08:08:29.064Z,26.5
2019-05-26T08:09:29.077Z,26.61
2019-05-26T08:10:29.086Z,26.7
2019-05-26T08:11:29.117Z,26.69
2019-05-26T08:12:32.981Z,26.29
2019-05-26T08:13:29.127Z,26.4
2019-05-26T08:14:29.142Z,26.5
2019-05-26T08:15:29.147Z,27.18
2019-05-26T08:16:29.168Z,27.75
2019-05-26T08:17:29.173Z,26.87
2019-05-26T08:18:29.184Z,28.03
2019-05-26T08:19:29.203Z,28.03
2019-05-26T08:20:29.209Z,28.03
2019-05-26T08:21:29.222Z,29
2019-05-26T08:22:29.244Z,29
2019-05-26T08:23:29.242Z,28.91
2019-05-26T08:24:29.260Z,28.41
2019-05-26T08:25:29.265Z,27.83
2019-05-26T08:26:29.276Z,28.79
2019-05-26T08:27:29.292Z,29.08
2019-05-26T08:28:29.300Z,29.28
2019-05-26T08:29:29.313Z,28.69
2019-05-26T08:30:29.319Z,29.46
2019-05-26T08:31:29.334Z,29.46
2019-05-26T08:32:29.341Z,30.04
2019-05-26T08:33:29.349Z,29.93
2019-05-26T08:34:29.364Z,30.2
2019-05-26T08:35:29.374Z,30.1
2019-05-26T08:36:29.381Z,30.2
2019-05-26T08:37:29.388Z,30.2
2019-05-26T08:38:29.402Z,30.49
2019-05-26T08:39:29.415Z,30.59
2019-05-26T08:40:29.427Z,30.2
2019-05-26T08:41:29.432Z,30.09
2019-05-26T08:42:44.904Z,31.15
2019-05-26T08:43:29.448Z,31.05
2019-05-26T08:44:29.456Z,31.64
2019-05-26T08:45:29.470Z,31.33
2019-05-26T08:46:29.479Z,32.5
2019-05-26T08:47:29.486Z,32.21
2019-05-26T08:48:29.498Z,32.31
2019-05-26T08:49:29.509Z,33.07
2019-05-26T08:50:29.511Z,32.86
2019-05-26T08:51:29.517Z,32.96
2019-05-26T08:52:29.529Z,32.96
2019-05-26T08:53:29.534Z,33.34
2019-05-26T08:54:29.547Z,33.43
2019-05-26T08:55:29.551Z,34.21
2019-05-26T08:56:29.579Z,34.11
2019-05-26T08:57:29.571Z,34.21
2019-05-26T08:58:31.754Z,34.79
2019-05-26T08:59:29.589Z,34.79
2019-05-26T09:00:29.598Z,34.89
2019-05-26T09:01:29.597Z,34.89
2019-05-26T09:02:29.649Z,35.57
2019-05-26T09:03:29.611Z,36.33
2019-05-26T09:04:29.385Z,35.93
2019-05-26T09:05:29.639Z,36.41
2019-05-26T09:06:29.634Z,36.32
2019-05-26T09:07:29.640Z,37.08
2019-05-26T09:08:29.650Z,36.98
2019-05-26T09:09:29.652Z,37.46
2019-05-26T09:10:29.656Z,36.96
2019-05-26T09:11:29.673Z,36.28
2019-05-26T09:12:29.668Z,36.47
2019-05-26T09:13:29.672Z,36.77
2019-05-26T09:14:29.680Z,36.87
2019-05-26T09:15:29.685Z,37.26
2019-05-26T09:16:29.694Z,36.85
2019-05-26T09:17:29.698Z,37.14
2019-05-26T09:18:29.707Z,37.34
2019-05-26T09:19:29.707Z,37.72
2019-05-26T09:20:29.714Z,37.14
2019-05-26T09:21:29.774Z,37.52
2019-05-26T09:22:29.763Z,37.52
2019-05-26T09:23:29.729Z,37.43
2019-05-26T09:24:29.751Z,37.24
2019-05-26T09:25:29.734Z,37.04
2019-05-26T09:26:29.750Z,37.12
2019-05-26T09:27:30.959Z,37.41
2019-05-26T09:28:29.758Z,37.22
2019-05-26T09:30:29.759Z,38.27
2019-05-26T09:31:29.764Z,38.27
2019-05-26T09:32:29.765Z,38.17
2019-05-26T09:33:29.770Z,38.75
2019-05-26T09:34:29.782Z,38.65
2019-05-26T09:35:29.777Z,38.37
2019-05-26T09:37:29.788Z,38.17
2019-05-26T09:38:29.793Z,38.27
2019-05-26T09:39:29.795Z,38.17
2019-05-26T09:40:29.795Z,37.78
2019-05-26T09:41:29.803Z,38.27
2019-05-26T09:42:29.801Z,38.93
2019-05-26T09:43:29.809Z,39.03
2019-05-26T09:44:29.809Z,39.12
2019-05-26T09:47:29.819Z,39.7
2019-05-26T09:48:29.824Z,38.93
2019-05-26T09:49:29.828Z,38.93
2019-05-26T09:50:29.829Z,38.83
2019-05-26T09:51:29.832Z,39.03
2019-05-26T09:52:29.840Z,39.61
2019-05-26T09:53:29.837Z,39.41
2019-05-26T09:54:31.061Z,39.22
2019-05-26T09:55:29.846Z,39.12
2019-05-26T09:56:29.847Z,38.93
2019-05-26T09:57:29.852Z,38.73
2019-05-26T09:58:29.867Z,38.85
2019-05-26T09:59:29.854Z,38.75
2019-05-26T10:00:29.862Z,38.34
2019-05-26T10:01:29.864Z,38.56
2019-05-26T10:02:29.865Z,38.65
2019-05-26T10:03:29.869Z,37.78
2019-05-26T10:04:29.871Z,37.96
2019-05-26T10:05:29.875Z,37.86
2019-05-26T10:06:29.876Z,38.25
2019-05-26T10:07:29.885Z,38.06
2019-05-26T10:08:29.881Z,38.64
2019-05-26T10:09:29.941Z,39.12
2019-05-26T10:10:29.890Z,38.73
2019-05-26T10:11:29.889Z,38.93
2019-05-26T10:12:29.900Z,38.73
2019-05-26T10:13:34.309Z,38.83
2019-05-26T10:14:29.897Z,38.83
2019-05-26T10:15:29.899Z,38.93
2019-05-26T10:16:29.906Z,38.54
2019-05-26T10:17:29.906Z,38.34
2019-05-26T10:18:29.912Z,38.65
2019-05-26T10:19:29.911Z,38.07
2019-05-26T10:20:29.915Z,37.98
2019-05-26T10:21:29.918Z,37.98
2019-05-26T10:22:29.919Z,38.27
2019-05-26T10:23:29.924Z,38.25
2019-05-26T10:24:29.928Z,37.49
2019-05-26T10:25:29.929Z,37.76
2019-05-26T10:26:29.932Z,38.15
2019-05-26T10:27:29.938Z,38.37
2019-05-26T10:28:29.963Z,38.46
2019-05-26T10:29:29.941Z,37.78
2019-05-26T10:30:29.944Z,38.07
2019-05-26T10:31:29.949Z,38.29
2019-05-26T10:32:29.949Z,37.32
2019-05-26T10:33:29.958Z,37.32
2019-05-26T10:34:29.956Z,37.6
2019-05-26T10:35:29.958Z,37.9
2019-05-26T10:36:29.964Z,38.19
2019-05-26T10:37:29.963Z,37.7
2019-05-26T10:38:29.972Z,37.43
2019-05-26T10:39:29.972Z,37.43
2019-05-26T10:40:29.977Z,37.34
2019-05-26T10:41:29.979Z,37.14
2019-05-26T10:42:29.979Z,37.24
2019-05-26T10:43:29.984Z,36.18
2019-05-26T10:44:29.988Z,36.16
2019-05-26T10:45:32.057Z,35.99
2019-05-26T10:46:29.998Z,35.99
2019-05-26T10:47:30.001Z,36.08
2019-05-26T10:48:30.004Z,36.28
2019-05-26T10:49:30.007Z,36.08
2019-05-26T10:50:30.068Z,36.28
2019-05-26T10:51:30.013Z,36.77
2019-05-26T10:52:30.020Z,37.37
2019-05-26T10:53:30.021Z,36.69
2019-05-26T10:54:30.038Z,35.05
2019-05-26T10:55:30.032Z,34.84
2019-05-26T10:56:30.123Z,34.74
2019-05-26T10:57:30.042Z,35.13
2019-05-26T10:58:30.046Z,35.03
2019-05-26T10:59:31.214Z,34.94
2019-05-26T11:00:32.919Z,35.11
2019-05-26T11:01:30.054Z,34.92
2019-05-26T11:02:30.058Z,34.82
2019-05-26T11:03:30.065Z,35.11
2019-05-26T11:04:30.065Z,34.82
2019-05-26T11:05:30.069Z,34.74
2019-05-26T11:06:30.075Z,34.92
2019-05-26T11:07:30.075Z,35.02
2019-05-26T11:08:30.078Z,35.7
2019-05-26T11:09:30.088Z,35.99
2019-05-26T11:10:30.084Z,35.8
2019-05-26T11:11:30.090Z,35.99
2019-05-26T11:12:30.094Z,35.89
2019-05-26T11:13:30.098Z,36.38
2019-05-26T11:14:30.100Z,36.38
2019-05-26T11:15:30.105Z,36.28
2019-05-26T11:16:30.117Z,36.18
2019-05-26T11:17:30.112Z,34.92
2019-05-26T11:18:30.119Z,35.02
2019-05-26T11:19:30.123Z,35.58
2019-05-26T11:20:30.123Z,35.68
2019-05-26T11:21:30.128Z,36.46
2019-05-26T11:22:30.135Z,37.34
2019-05-26T11:23:29.893Z,37.34
2019-05-26T11:24:30.142Z,37.24
2019-05-26T11:25:30.141Z,36.55
2019-05-26T11:26:30.146Z,37.43
2019-05-26T11:27:30.148Z,36.83
2019-05-26T11:28:30.152Z,37.41
2019-05-26T11:29:30.157Z,37.99
2019-05-26T11:30:30.160Z,37.49
2019-05-26T11:31:29.918Z,37.3
2019-05-26T11:32:30.213Z,38.27
2019-05-26T11:33:30.169Z,38.27
2019-05-26T11:34:30.241Z,38.27
2019-05-26T11:35:30.176Z,37.49
2019-05-26T11:36:30.176Z,37.39
2019-05-26T11:37:30.178Z,37.22
2019-05-26T11:38:33.149Z,37.32
2019-05-26T11:39:30.185Z,37.22
2019-05-26T11:40:30.212Z,37.22
2019-05-26T11:41:30.193Z,37.04
2019-05-26T11:42:30.202Z,36.94
2019-05-26T11:43:30.214Z,36.94
2019-05-26T11:44:30.204Z,36.65
2019-05-26T11:45:30.207Z,36.26
2019-05-26T11:46:30.224Z,35.41
2019-05-26T11:47:30.210Z,35.6
2019-05-26T11:48:30.240Z,36.18
2019-05-26T11:49:30.239Z,35.31
2019-05-26T11:50:30.218Z,34.94
2019-05-26T11:51:30.239Z,35.13
2019-05-26T11:52:30.226Z,35.71
2019-05-26T11:53:30.232Z,35.42
2019-05-26T11:54:30.236Z,35.03
2019-05-26T11:55:30.381Z,34.74
2019-05-26T11:56:30.243Z,34.84
2019-05-26T11:57:30.252Z,34.74
2019-05-26T11:58:30.247Z,34.74
2019-05-26T11:59:30.255Z,35.03
2019-05-26T12:00:30.259Z,35.15
2019-05-26T12:01:30.259Z,34.94
2019-05-26T12:02:30.263Z,35.53
2019-05-26T12:03:30.268Z,35.15
2019-05-26T12:04:30.277Z,34.66
2019-05-26T12:05:30.281Z,35.05
2019-05-26T12:06:30.281Z,35.63
2019-05-26T12:07:30.283Z,35.16
2019-05-26T12:08:30.292Z,35.36
2019-05-26T12:09:30.298Z,34.88
2019-05-26T12:10:30.297Z,34.48
2019-05-26T12:11:30.300Z,34.39
2019-05-26T12:12:30.303Z,34.39
2019-05-26T12:13:30.309Z,34.47
2019-05-26T12:14:37.552Z,34.76
2019-05-26T12:15:30.317Z,34.27
2019-05-26T12:16:31.390Z,34.56
2019-05-26T12:17:30.326Z,34.66
2019-05-26T12:18:30.331Z,34.84
2019-05-26T12:19:30.337Z,35.13
2019-05-26T12:20:30.402Z,35.52
2019-05-26T12:21:30.347Z,36.38
2019-05-26T12:22:30.348Z,35.89
2019-05-26T12:23:30.351Z,35.42
2019-05-26T12:24:30.358Z,35.11
2019-05-26T12:25:30.363Z,34.94
2019-05-26T12:26:30.362Z,35.03
2019-05-26T12:27:30.367Z,34.64
2019-05-26T12:28:30.369Z,34.64
2019-05-26T12:29:30.376Z,34.84
2019-05-26T12:30:30.384Z,35.03
2019-05-26T12:31:30.382Z,35.03
2019-05-26T12:32:30.385Z,35.03
2019-05-26T12:33:30.388Z,34.86
2019-05-26T12:34:30.393Z,34.66
2019-05-26T12:35:30.394Z,34.37
2019-05-26T12:36:30.421Z,34.86
2019-05-26T12:37:30.404Z,34.66
2019-05-26T12:38:30.409Z,33.49
2019-05-26T12:39:30.413Z,33.49
2019-05-26T12:40:30.415Z,33.49
2019-05-26T12:41:33.195Z,33.49
2019-05-26T12:42:30.425Z,33.49
2019-05-26T12:43:30.426Z,33.88
2019-05-26T12:44:30.431Z,33.67
2019-05-26T12:45:30.439Z,33.86
2019-05-26T12:46:30.443Z,33.77
2019-05-26T12:47:30.457Z,33.67
2019-05-26T12:48:30.446Z,34.35
2019-05-26T12:49:30.526Z,34.45
2019-05-26T12:50:30.459Z,34.35
2019-05-26T12:51:30.471Z,34.16
2019-05-26T12:52:30.460Z,33.28
2019-05-26T12:53:30.463Z,33.28
2019-05-26T12:54:30.472Z,33.67
2019-05-26T12:55:30.473Z,34.64
2019-05-26T12:56:30.477Z,34.82
2019-05-26T12:57:30.481Z,35.52
2019-05-26T12:58:30.482Z,35.71
2019-05-26T12:59:30.485Z,35.71
2019-05-26T13:00:45.214Z,35.42
2019-05-26T13:01:30.499Z,35.33
2019-05-26T13:02:30.502Z,35.03
2019-05-26T13:03:30.498Z,35.05
2019-05-26T13:04:30.506Z,35.23
2019-05-26T13:05:30.509Z,35.05
2019-05-26T13:06:30.570Z,34.95
2019-05-26T13:07:30.539Z,35.15
2019-05-26T13:08:30.521Z,35.05
2019-05-26T13:09:30.522Z,34.86
2019-05-26T13:10:30.529Z,35.05
2019-05-26T13:11:30.529Z,35.05
2019-05-26T13:12:30.545Z,34.56
2019-05-26T13:13:30.542Z,34.66
2019-05-26T13:14:30.543Z,34.66
2019-05-26T13:15:30.544Z,35.05
2019-05-26T13:16:30.556Z,35.05
2019-05-26T13:17:30.554Z,35.05
2019-05-26T13:18:30.565Z,34.86
2019-05-26T13:19:30.575Z,34.86
2019-05-26T13:20:30.615Z,35.05
2019-05-26T13:21:30.571Z,35.15
2019-05-26T13:22:30.575Z,34.58
2019-05-26T13:23:30.585Z,34.58
2019-05-26T13:24:30.581Z,34.39
2019-05-26T13:25:30.591Z,34.58
2019-05-26T13:26:30.588Z,34.4
2019-05-26T13:27:30.589Z,33.43
2019-05-26T13:28:30.596Z,33.72
2019-05-26T13:29:30.604Z,33.82
2019-05-26T13:30:30.604Z,33.62
2019-05-26T13:31:30.609Z,33.53
2019-05-26T13:32:30.613Z,34.01
2019-05-26T13:33:30.616Z,33.43
2019-05-26T13:34:30.629Z,33.53
2019-05-26T13:35:30.629Z,34.21
2019-05-26T13:36:30.678Z,34.21
2019-05-26T13:37:30.637Z,34.09
2019-05-26T13:38:30.639Z,34.19
2019-05-26T13:39:30.644Z,34.78
2019-05-26T13:40:32.097Z,34.99
2019-05-26T13:41:30.653Z,35.16
2019-05-26T13:42:30.654Z,34.48
2019-05-26T13:43:30.664Z,34.4
2019-05-26T13:44:30.665Z,34
2019-05-26T13:45:33.665Z,34.29
2019-05-26T13:46:30.671Z,34.39
2019-05-26T13:47:30.679Z,34.68
2019-05-26T13:48:30.686Z,34.68
2019-05-26T13:49:30.683Z,34.86
2019-05-26T13:50:30.686Z,35.05
2019-05-26T13:51:30.688Z,34.95
2019-05-26T13:52:30.696Z,35.05
2019-05-26T13:53:30.697Z,35.05
2019-05-26T13:54:30.702Z,34.56
2019-05-26T13:55:30.463Z,34.56
2019-05-26T13:56:30.748Z,34.86
2019-05-26T13:57:30.717Z,34.66
2019-05-26T13:58:30.717Z,34.76
2019-05-26T13:59:30.783Z,34.37
2019-05-26T14:00:30.728Z,34.37
2019-05-26T14:01:30.728Z,34.76
2019-05-26T14:02:30.741Z,35.03
2019-05-26T14:03:30.737Z,35.13
2019-05-26T14:04:30.740Z,35.15
2019-05-26T14:05:30.756Z,35.05
2019-05-26T14:06:30.769Z,34.86
2019-05-26T14:07:30.753Z,34.86
2019-05-26T14:08:30.755Z,35.44
2019-05-26T14:09:30.759Z,35.44
2019-05-26T14:10:30.767Z,35.15
2019-05-26T14:11:30.570Z,35.05
2019-05-26T14:12:30.770Z,35.44
2019-05-26T14:13:30.777Z,35.73
2019-05-26T14:14:30.778Z,35.55
2019-05-26T14:15:39.872Z,35.05
2019-05-26T14:16:30.548Z,34.88
2019-05-26T14:17:30.789Z,35.16
2019-05-26T14:18:30.802Z,35.16
2019-05-26T14:19:30.796Z,35.06
2019-05-26T14:20:30.803Z,34.97
2019-05-26T14:21:30.808Z,35.26
2019-05-26T14:22:30.808Z,35.16
2019-05-26T14:23:30.813Z,34.48
2019-05-26T14:24:30.814Z,33.31
2019-05-26T14:25:30.820Z,33.61
2019-05-26T14:26:30.822Z,32.82
2019-05-26T14:27:30.825Z,31.25
2019-05-26T14:28:30.831Z,32.42
2019-05-26T14:29:30.839Z,32.71
2019-05-26T14:30:30.838Z,32.91
2019-05-26T14:31:30.843Z,33.11
2019-05-26T14:32:30.850Z,33.58
2019-05-26T14:33:30.608Z,33.48
2019-05-26T14:34:30.853Z,33.49
2019-05-26T14:35:30.860Z,33.39
2019-05-26T14:36:30.867Z,33.59
2019-05-26T14:37:30.864Z,33.39
2019-05-26T14:38:45.237Z,33.49
2019-05-26T14:39:30.869Z,33.59
2019-05-26T14:40:30.878Z,33.69
2019-05-26T14:41:30.881Z,33.49
2019-05-26T14:42:30.882Z,32.81
2019-05-26T14:43:30.886Z,33.01
2019-05-26T14:44:30.899Z,32.81
2019-05-26T14:45:30.897Z,33.11
2019-05-26T14:46:30.901Z,33.18
2019-05-26T14:47:30.900Z,33.58
2019-05-26T14:48:30.908Z,33.38
2019-05-26T14:49:30.909Z,32.97
2019-05-26T14:50:30.911Z,33.26
2019-05-26T14:51:30.931Z,33.17
2019-05-26T14:52:30.915Z,33.17
2019-05-26T14:53:30.921Z,32.97
2019-05-26T14:54:30.935Z,33.36
2019-05-26T14:55:30.928Z,33.17
2019-05-26T14:56:30.935Z,33.46
2019-05-26T14:57:33.348Z,33.36
2019-05-26T14:58:30.937Z,33.26
2019-05-26T14:59:30.940Z,32.97
2019-05-26T15:00:30.708Z,32.87
2019-05-26T15:01:30.945Z,33.07
2019-05-26T15:02:30.709Z,33.48
2019-05-26T15:03:30.952Z,33.48
2019-05-26T15:04:33.583Z,33.28
2019-05-26T15:05:30.959Z,33.28
2019-05-26T15:06:30.966Z,33.38
2019-05-26T15:07:30.965Z,33.58
2019-05-26T15:08:30.968Z,33.18
2019-05-26T15:09:30.972Z,33.18
2019-05-26T15:10:30.974Z,33.58
2019-05-26T15:11:30.983Z,33.09
2019-05-26T15:12:30.979Z,33.38
2019-05-26T15:13:30.985Z,33.96
2019-05-26T15:14:30.988Z,34.45
2019-05-26T15:15:30.993Z,34.45
2019-05-26T15:16:31.000Z,34.35
2019-05-26T15:17:31.003Z,34.45
2019-05-26T15:18:31.007Z,34.25
2019-05-26T15:19:31.009Z,34.33
2019-05-26T15:20:31.007Z,34.74
2019-05-26T15:21:31.068Z,34.43
2019-05-26T15:22:31.013Z,34.55
2019-05-26T15:23:31.021Z,34.33
2019-05-26T15:24:31.022Z,34.43
2019-05-26T15:25:31.029Z,34.72
2019-05-26T15:26:31.027Z,34.63
2019-05-26T15:27:31.030Z,34.43
2019-05-26T15:28:31.043Z,34.53
2019-05-26T15:29:31.041Z,35.02
2019-05-26T15:30:31.041Z,34.82
2019-05-26T15:31:31.041Z,34.53
2019-05-26T15:32:31.045Z,34.63
2019-05-26T15:33:31.049Z,34.82
2019-05-26T15:34:31.056Z,35.02
2019-05-26T15:35:31.057Z,34.92
2019-05-26T15:36:31.064Z,35.11
2019-05-26T15:37:31.062Z,35.02
2019-05-26T15:38:44.769Z,35.11
2019-05-26T15:39:31.073Z,35.41
2019-05-26T15:40:31.096Z,35.02
2019-05-26T15:41:31.074Z,34.72
2019-05-26T15:42:31.079Z,34.82
2019-05-26T15:43:31.084Z,35.41
2019-05-26T15:44:31.079Z,35.11
2019-05-26T15:45:31.084Z,35.11
2019-05-26T15:46:31.084Z,35.29
2019-05-26T15:47:31.088Z,35.78
2019-05-26T15:48:31.088Z,36.65
2019-05-26T15:49:31.091Z,35.78
2019-05-26T15:50:31.104Z,35.88
2019-05-26T15:51:31.098Z,36.05
2019-05-26T15:52:31.100Z,36.15
2019-05-26T15:53:31.100Z,37.02
2019-05-26T15:54:31.104Z,36.15
2019-05-26T15:55:31.112Z,36.15
2019-05-26T15:56:31.107Z,36.83
2019-05-26T15:57:31.121Z,36.83
2019-05-26T15:58:31.114Z,36.34
2019-05-26T15:59:31.133Z,35.96
2019-05-26T16:00:31.118Z,36.63
2019-05-26T16:01:31.120Z,36.34
2019-05-26T16:02:31.123Z,37.02
2019-05-26T16:03:31.124Z,36.93
2019-05-26T16:04:31.125Z,36.44
2019-05-26T16:05:31.128Z,36.05
2019-05-26T16:06:31.136Z,37.02
2019-05-26T16:07:31.131Z,36.73
2019-05-26T16:08:30.899Z,36.73
2019-05-26T16:09:31.138Z,37.02
2019-05-26T16:10:31.141Z,37.32
2019-05-26T16:11:31.142Z,37.12
2019-05-26T16:12:31.141Z,36.73
2019-05-26T16:13:31.142Z,36.24
2019-05-26T16:14:31.147Z,35.66
2019-05-26T16:15:31.151Z,35.86
2019-05-26T16:16:43.185Z,36.04
2019-05-26T16:17:30.919Z,36.71
2019-05-26T16:18:31.160Z,37.1
2019-05-26T16:19:31.158Z,37.08
2019-05-26T16:20:31.233Z,37.37
2019-05-26T16:21:31.161Z,37.76
2019-05-26T16:22:31.161Z,37.76
2019-05-26T16:23:31.163Z,38.23
2019-05-26T16:24:31.168Z,38.42
2019-05-26T16:25:31.166Z,38.62
2019-05-26T16:26:31.192Z,38.81
2019-05-26T16:27:31.169Z,38.81
2019-05-26T16:28:31.171Z,39.08
2019-05-26T16:29:31.173Z,39.08
2019-05-26T16:30:31.177Z,39.47
2019-05-26T16:31:31.175Z,39.76
2019-05-26T16:32:31.182Z,40.23
2019-05-26T16:33:31.177Z,39.94
2019-05-26T16:34:31.178Z,39.84
2019-05-26T16:35:31.183Z,40.42
2019-05-26T16:36:31.192Z,40.33
2019-05-26T16:37:31.182Z,40.33
2019-05-26T16:38:31.184Z,40.31
2019-05-26T16:39:39.468Z,40.99
2019-05-26T16:40:31.183Z,40.89
2019-05-26T16:41:31.185Z,41.27
2019-05-26T16:42:31.186Z,41.17
2019-05-26T16:43:31.187Z,41.27
2019-05-26T16:44:31.186Z,41.17
2019-05-26T16:45:31.187Z,41.37
2019-05-26T16:46:31.188Z,41.47
2019-05-26T16:47:30.946Z,41.64
2019-05-26T16:48:31.252Z,41.95
2019-05-26T16:49:31.188Z,42.03
2019-05-26T16:50:31.302Z,42.32
2019-05-26T16:51:31.195Z,42.71
2019-05-26T16:52:31.188Z,42.41
2019-05-26T16:53:31.191Z,42.51
2019-05-26T16:54:31.192Z,43.19
2019-05-26T16:55:31.191Z,42.9
2019-05-26T16:56:31.195Z,43
2019-05-26T16:57:31.192Z,43.09
2019-05-26T16:58:31.191Z,43.38
2019-05-26T16:59:31.192Z,43.48
2019-05-26T17:00:31.198Z,43.48
2019-05-26T17:01:30.955Z,43.38
2019-05-26T17:02:31.198Z,43.48
2019-05-26T17:03:31.199Z,43.87
2019-05-26T17:04:31.196Z,43.77
2019-05-26T17:05:31.193Z,43.68
2019-05-26T17:06:31.193Z,43.5
2019-05-26T17:07:31.197Z,43.31
2019-05-26T17:08:31.196Z,43.5
2019-05-26T17:09:31.195Z,43.31
2019-05-26T17:10:31.202Z,43.13
2019-05-26T17:11:31.195Z,43.12
2019-05-26T17:12:31.201Z,42.85
2019-05-26T17:13:33.073Z,43.5
2019-05-26T17:14:31.198Z,43.31
2019-05-26T17:15:31.200Z,43.5
2019-05-26T17:16:31.196Z,43.89
2019-05-26T17:17:31.198Z,43.7
2019-05-26T17:18:31.199Z,43.99
2019-05-26T17:19:31.203Z,44.18
2019-05-26T17:20:31.198Z,44.26
2019-05-26T17:21:31.200Z,44.74
2019-05-26T17:22:31.197Z,44.64
2019-05-26T17:23:31.198Z,44.74
2019-05-26T17:24:31.203Z,44.93
2019-05-26T17:25:31.204Z,45.2
2019-05-26T17:26:31.202Z,45.4
2019-05-26T17:27:31.202Z,45.68
2019-05-26T17:28:31.203Z,45.98
2019-05-26T17:29:31.200Z,46.17
2019-05-26T17:30:31.200Z,46.25
2019-05-26T17:32:33.686Z,47.02
2019-05-26T17:33:31.203Z,46.51
2019-05-26T17:34:31.195Z,46.61
2019-05-26T17:35:31.197Z,47.77
2019-05-26T17:36:31.193Z,47.67
2019-05-26T17:37:32.872Z,47.86
2019-05-26T17:38:43.929Z,48.23
2019-05-26T17:44:38.479Z,49.46
2019-05-26T17:45:33.872Z,49.46
2019-05-26T17:46:31.178Z,49.85
2019-05-26T17:47:33.104Z,49.92
2019-05-26T17:48:31.176Z,49.73
2019-05-26T17:49:31.173Z,50.01
2019-05-26T17:50:31.185Z,50.69
2019-05-26T17:51:31.171Z,51.17
2019-05-26T17:52:31.173Z,51.15
2019-05-26T17:53:31.180Z,51.53
2019-05-26T17:54:31.167Z,51.92
2019-05-26T17:55:31.165Z,51.73
2019-05-26T17:56:31.163Z,52.11
2019-05-26T17:57:31.162Z,52.21
2019-05-26T17:58:31.159Z,52.37
2019-05-26T17:59:30.915Z,52.79
2019-05-26T18:00:31.194Z,53.15
2019-05-26T18:01:31.157Z,52.76
2019-05-26T18:02:31.156Z,52.86
2019-05-26T18:03:31.148Z,53.05
2019-05-26T18:04:31.146Z,53.15
2019-05-26T18:05:31.152Z,53.34
2019-05-26T18:06:31.145Z,53.53
2019-05-26T18:07:31.142Z,53.61
2019-05-26T18:08:31.161Z,54.57
2019-05-26T18:09:46.084Z,54.28
2019-05-26T18:10:31.140Z,54.09
2019-05-26T18:11:31.208Z,54.28
2019-05-26T18:12:31.132Z,54.28
2019-05-26T18:13:31.131Z,54.66
2019-05-26T18:14:31.139Z,54.76
2019-05-26T18:15:31.126Z,54.93
2019-05-26T18:16:31.127Z,55.22
2019-05-26T18:17:45.764Z,55.79
2019-05-26T18:18:31.119Z,55.79
2019-05-26T18:19:32.053Z,55.7
2019-05-26T18:20:31.117Z,56.09
2019-05-26T18:21:31.113Z,56.09
2019-05-26T18:22:30.867Z,56.09
2019-05-26T18:23:31.104Z,56.27
2019-05-26T18:24:31.104Z,56.15
2019-05-26T18:25:30.862Z,56.37
2019-05-26T18:26:31.103Z,56.54
2019-05-26T18:27:31.096Z,56.05
2019-05-26T18:28:31.093Z,56.44